»·PEaware :: N129K KRNT-KBLI

N129K :: KRNT-KBLI

FLIGHT INFORMATION

Flight Status: Arrived
Operator: Privately registered:
United States
More flights under this callsign
Pilot: Carlos L. (38175)
Aircraft: CESSNA 208 CARAVAN
(C208)
More flights by this aircraft type
Origin: KRNT Renton Mun
United States
Destination: KBLI Bellingham Intl
United States
More flights between these airports :: More routes between these airports
Route: BELVU4 PAE V23 AMEKE MADEE MADEE4
File this flight plan on PilotEdge
Remarks:
Altitude:
(Current/Filed)
6,000ft
Speed:
(Current/Filed)
120kts
Departed: 10-Nov-22 05:44 PM
Arrived: 10-Nov-22 06:32 PM
Distance/Time
Traveled:
79nm/0:48
Distance/Time
To Go:
Arrived

Flight Plot

Page will automatically refresh every two minutes.

Flight plan parsing failed; only flown route is shown


Map Options




Map Legend


Flown Route
Filed Route
Departure Airport
Arrival Airport
Navaid (VOR, NDB)
Fix

Horizontal Profiles

Position Reports

Time Latitude Longitude Heading Altitude Ground
Speed
10-Nov-22 17:27 47.488298 -122.217029 308 36ft 0kts
10-Nov-22 17:28 47.488298 -122.217029 308 36ft 0kts
10-Nov-22 17:29 47.488298 -122.217029 308 36ft 0kts
10-Nov-22 17:30 47.488300 -122.217033 308 36ft 0kts
10-Nov-22 17:31 47.488149 -122.216314 174 38ft 20kts
10-Nov-22 17:32 47.487335 -122.215885 179 37ft 0kts
10-Nov-22 17:33 47.487335 -122.215885 179 37ft 0kts
10-Nov-22 17:34 47.487335 -122.215885 179 37ft 0kts
10-Nov-22 17:35 47.487335 -122.215885 179 37ft 0kts
10-Nov-22 17:36 47.487335 -122.215885 179 37ft 0kts
10-Nov-22 17:37 47.487335 -122.215885 179 37ft 0kts
10-Nov-22 17:38 47.487335 -122.215885 179 37ft 0kts
10-Nov-22 17:39 47.487335 -122.215885 179 37ft 0kts
10-Nov-22 17:40 47.487335 -122.215885 179 37ft 0kts
10-Nov-22 17:41 47.486253 -122.215658 136 36ft 0kts
10-Nov-22 17:42 47.486253 -122.215658 136 36ft 0kts
10-Nov-22 17:43 47.493159 -122.215257 4 146ft 106kts
10-Nov-22 17:44 47.529267 -122.209559 5 1774ft 136kts
10-Nov-22 17:45 47.565922 -122.211820 340 3581ft 133kts
10-Nov-22 17:46 47.601383 -122.221835 346 5291ft 127kts
10-Nov-22 17:47 47.640253 -122.230855 347 6002ft 156kts
10-Nov-22 17:48 47.684803 -122.237601 353 6015ft 163kts
10-Nov-22 17:49 47.730883 -122.243967 351 5998ft 167kts
10-Nov-22 17:50 47.777159 -122.251632 350 6000ft 166kts
10-Nov-22 17:51 47.822436 -122.259620 350 5995ft 162kts
10-Nov-22 17:52 47.867722 -122.267789 350 5999ft 165kts
10-Nov-22 17:53 47.913436 -122.276095 350 6003ft 167kts
10-Nov-22 17:54 47.959305 -122.288050 346 6004ft 168kts
10-Nov-22 17:55 48.005314 -122.301745 346 6008ft 169kts
10-Nov-22 17:56 48.051590 -122.315312 346 6004ft 168kts
10-Nov-22 17:57 48.097636 -122.328757 346 6004ft 169kts
10-Nov-22 17:58 48.143525 -122.342061 346 6001ft 167kts
10-Nov-22 17:59 48.189693 -122.355028 346 6008ft 170kts
10-Nov-22 18:00 48.233914 -122.368686 346 5990ft 151kts
10-Nov-22 18:01 48.273958 -122.380448 346 5992ft 143kts
10-Nov-22 18:02 48.312581 -122.391769 346 5997ft 141kts
10-Nov-22 18:03 48.352216 -122.405210 334 6006ft 144kts
10-Nov-22 18:04 48.389962 -122.428167 335 6006ft 147kts
10-Nov-22 18:05 48.428747 -122.451383 335 5270ft 149kts
10-Nov-22 18:06 48.467157 -122.474454 335 4481ft 148kts
10-Nov-22 18:07 48.505891 -122.497806 335 4013ft 151kts
10-Nov-22 18:08 48.545981 -122.521816 336 3485ft 156kts
10-Nov-22 18:09 48.586542 -122.536728 357 3014ft 156kts
10-Nov-22 18:10 48.631099 -122.536729 357 3011ft 162kts
10-Nov-22 18:11 48.676367 -122.536790 356 2214ft 142kts
10-Nov-22 18:12 48.709513 -122.537167 357 1793ft 122kts
10-Nov-22 18:13 48.740847 -122.537247 355 1023ft 109kts
10-Nov-22 18:14 48.770733 -122.537357 358 457ft 101kts
10-Nov-22 18:15 48.793181 -122.537610 352 196ft 64kts
10-Nov-22 18:16 48.825655 -122.540403 19 1590ft 139kts
10-Nov-22 18:17 48.835104 -122.484325 78 3225ft 154kts
10-Nov-22 18:18 48.817862 -122.439025 173 3966ft 171kts
10-Nov-22 18:19 48.773707 -122.456772 197 4009ft 159kts
10-Nov-22 18:20 48.730473 -122.473740 197 4017ft 167kts
10-Nov-22 18:21 48.684987 -122.491825 197 3553ft 171kts
10-Nov-22 18:22 48.640210 -122.508537 185 2995ft 157kts
10-Nov-22 18:23 48.607728 -122.473863 189 2919ft 155kts
10-Nov-22 18:24 48.596528 -122.522303 310 2923ft 151kts
10-Nov-22 18:25 48.633552 -122.533468 352 2941ft 117kts
10-Nov-22 18:26 48.666073 -122.535956 353 2469ft 123kts
10-Nov-22 18:27 48.700788 -122.538614 353 2205ft 126kts
10-Nov-22 18:28 48.735953 -122.541299 354 2196ft 126kts
10-Nov-22 18:29 48.769721 -122.537463 356 818ft 118kts
10-Nov-22 18:30 48.795879 -122.537709 339 173ft 46kts
10-Nov-22 18:31 48.797394 -122.539331 203 172ft 17kts

Navigation Log

Ident Type
Flight plan parsing failed, navigation log unavailable